sensor_id;sensor_type;location;lat;lon;timestamp;P1;durP1;ratioP1;P2;durP2;ratioP2
10277;SDS011;5184;51.376;7.148;2023-05-07T00:01:42;5.00;;;3.67;;
10277;SDS011;5184;51.376;7.148;2023-05-07T00:04:08;4.90;;;4.30;;
10277;SDS011;5184;51.376;7.148;2023-05-07T00:06:35;4.53;;;4.10;;
10277;SDS011;5184;51.376;7.148;2023-05-07T00:09:01;6.83;;;4.50;;
10277;SDS011;5184;51.376;7.148;2023-05-07T00:11:29;5.33;;;4.60;;
10277;SDS011;5184;51.376;7.148;2023-05-07T00:13:56;5.13;;;4.60;;
10277;SDS011;5184;51.376;7.148;2023-05-07T00:16:23;4.80;;;3.90;;
10277;SDS011;5184;51.376;7.148;2023-05-07T00:18:49;6.20;;;4.50;;
10277;SDS011;5184;51.376;7.148;2023-05-07T00:21:16;4.70;;;4.20;;
10277;SDS011;5184;51.376;7.148;2023-05-07T00:23:42;4.67;;;4.27;;
10277;SDS011;5184;51.376;7.148;2023-05-07T00:26:09;5.10;;;3.90;;
10277;SDS011;5184;51.376;7.148;2023-05-07T00:28:36;3.83;;;3.40;;
10277;SDS011;5184;51.376;7.148;2023-05-07T00:31:04;4.70;;;4.17;;
10277;SDS011;5184;51.376;7.148;2023-05-07T00:33:30;5.00;;;4.40;;
10277;SDS011;5184;51.376;7.148;2023-05-07T00:35:57;7.00;;;4.40;;
10277;SDS011;5184;51.376;7.148;2023-05-07T00:38:24;5.83;;;4.63;;
10277;SDS011;5184;51.376;7.148;2023-05-07T00:40:50;7.10;;;4.43;;
10277;SDS011;5184;51.376;7.148;2023-05-07T00:43:18;5.80;;;4.10;;
10277;SDS011;5184;51.376;7.148;2023-05-07T00:45:45;5.20;;;3.70;;
10277;SDS011;5184;51.376;7.148;2023-05-07T00:48:12;4.33;;;3.57;;
10277;SDS011;5184;51.376;7.148;2023-05-07T00:50:39;6.90;;;3.30;;
10277;SDS011;5184;51.376;7.148;2023-05-07T00:53:06;4.00;;;3.07;;
10277;SDS011;5184;51.376;7.148;2023-05-07T00:55:32;3.73;;;2.87;;
10277;SDS011;5184;51.376;7.148;2023-05-07T00:57:59;4.00;;;2.93;;
10277;SDS011;5184;51.376;7.148;2023-05-07T01:00:26;4.30;;;3.20;;
10277;SDS011;5184;51.376;7.148;2023-05-07T01:02:53;3.47;;;3.07;;
10277;SDS011;5184;51.376;7.148;2023-05-07T01:05:19;4.10;;;3.70;;
10277;SDS011;5184;51.376;7.148;2023-05-07T01:07:46;5.07;;;3.80;;
10277;SDS011;5184;51.376;7.148;2023-05-07T01:10:12;4.80;;;4.30;;
10277;SDS011;5184;51.376;7.148;2023-05-07T01:12:39;3.87;;;3.10;;
10277;SDS011;5184;51.376;7.148;2023-05-07T01:15:06;3.43;;;3.10;;
10277;SDS011;5184;51.376;7.148;2023-05-07T01:17:35;3.77;;;3.20;;
10277;SDS011;5184;51.376;7.148;2023-05-07T01:20:02;4.63;;;2.80;;
10277;SDS011;5184;51.376;7.148;2023-05-07T01:22:30;4.17;;;3.60;;
10277;SDS011;5184;51.376;7.148;2023-05-07T01:24:56;3.90;;;3.50;;
10277;SDS011;5184;51.376;7.148;2023-05-07T01:27:22;3.93;;;2.97;;
10277;SDS011;5184;51.376;7.148;2023-05-07T01:29:49;5.73;;;3.87;;
10277;SDS011;5184;51.376;7.148;2023-05-07T01:32:16;4.30;;;3.70;;
10277;SDS011;5184;51.376;7.148;2023-05-07T01:34:42;4.57;;;3.47;;
10277;SDS011;5184;51.376;7.148;2023-05-07T01:37:10;4.50;;;3.50;;
10277;SDS011;5184;51.376;7.148;2023-05-07T01:39:37;4.27;;;3.63;;
10277;SDS011;5184;51.376;7.148;2023-05-07T01:42:04;4.33;;;3.60;;
10277;SDS011;5184;51.376;7.148;2023-05-07T01:44:30;6.57;;;3.20;;
10277;SDS011;5184;51.376;7.148;2023-05-07T01:46:57;6.50;;;2.93;;
10277;SDS011;5184;51.376;7.148;2023-05-07T01:49:23;3.40;;;3.07;;
10277;SDS011;5184;51.376;7.148;2023-05-07T01:51:51;4.07;;;3.43;;
10277;SDS011;5184;51.376;7.148;2023-05-07T01:54:18;3.67;;;3.37;;
10277;SDS011;5184;51.376;7.148;2023-05-07T01:56:45;4.53;;;3.37;;
10277;SDS011;5184;51.376;7.148;2023-05-07T01:59:11;4.20;;;2.93;;
10277;SDS011;5184;51.376;7.148;2023-05-07T02:01:38;4.33;;;3.13;;
10277;SDS011;5184;51.376;7.148;2023-05-07T02:04:04;4.10;;;3.03;;
10277;SDS011;5184;51.376;7.148;2023-05-07T02:06:31;3.70;;;2.80;;
10277;SDS011;5184;51.376;7.148;2023-05-07T02:08:58;3.47;;;3.10;;
10277;SDS011;5184;51.376;7.148;2023-05-07T02:11:25;3.43;;;2.90;;
10277;SDS011;5184;51.376;7.148;2023-05-07T02:13:52;3.80;;;2.83;;
10277;SDS011;5184;51.376;7.148;2023-05-07T02:16:18;3.37;;;3.13;;
10277;SDS011;5184;51.376;7.148;2023-05-07T02:18:45;6.17;;;3.50;;
10277;SDS011;5184;51.376;7.148;2023-05-07T02:21:12;3.30;;;3.00;;
10277;SDS011;5184;51.376;7.148;2023-05-07T02:23:40;3.83;;;3.10;;
10277;SDS011;5184;51.376;7.148;2023-05-07T02:26:06;5.00;;;3.13;;
10277;SDS011;5184;51.376;7.148;2023-05-07T02:28:33;3.60;;;2.63;;
10277;SDS011;5184;51.376;7.148;2023-05-07T02:30:59;4.10;;;2.90;;
10277;SDS011;5184;51.376;7.148;2023-05-07T02:33:26;3.67;;;2.80;;
10277;SDS011;5184;51.376;7.148;2023-05-07T02:35:52;3.30;;;2.80;;
10277;SDS011;5184;51.376;7.148;2023-05-07T02:38:20;3.13;;;2.83;;
10277;SDS011;5184;51.376;7.148;2023-05-07T02:40:47;6.37;;;2.93;;
10277;SDS011;5184;51.376;7.148;2023-05-07T02:43:14;3.77;;;2.50;;
10277;SDS011;5184;51.376;7.148;2023-05-07T02:45:40;3.30;;;3.00;;
10277;SDS011;5184;51.376;7.148;2023-05-07T02:48:07;3.30;;;2.50;;
10277;SDS011;5184;51.376;7.148;2023-05-07T02:50:34;6.03;;;2.57;;
10277;SDS011;5184;51.376;7.148;2023-05-07T02:53:00;4.73;;;2.87;;
10277;SDS011;5184;51.376;7.148;2023-05-07T02:55:28;3.27;;;2.60;;
10277;SDS011;5184;51.376;7.148;2023-05-07T02:57:55;4.73;;;2.67;;
10277;SDS011;5184;51.376;7.148;2023-05-07T03:00:22;3.30;;;2.50;;
10277;SDS011;5184;51.376;7.148;2023-05-07T03:02:48;3.40;;;2.53;;
10277;SDS011;5184;51.376;7.148;2023-05-07T03:05:15;3.20;;;2.47;;
10277;SDS011;5184;51.376;7.148;2023-05-07T03:07:41;2.83;;;2.50;;
10277;SDS011;5184;51.376;7.148;2023-05-07T03:10:08;3.10;;;2.50;;
10277;SDS011;5184;51.376;7.148;2023-05-07T03:12:36;3.17;;;2.50;;
10277;SDS011;5184;51.376;7.148;2023-05-07T03:15:03;3.60;;;2.60;;
10277;SDS011;5184;51.376;7.148;2023-05-07T03:17:30;3.27;;;2.50;;
10277;SDS011;5184;51.376;7.148;2023-05-07T03:19:58;3.93;;;2.83;;
10277;SDS011;5184;51.376;7.148;2023-05-07T03:22:25;4.17;;;2.80;;
10277;SDS011;5184;51.376;7.148;2023-05-07T03:24:52;3.20;;;2.23;;
10277;SDS011;5184;51.376;7.148;2023-05-07T03:27:18;4.33;;;2.90;;
10277;SDS011;5184;51.376;7.148;2023-05-07T03:29:46;4.10;;;3.40;;
10277;SDS011;5184;51.376;7.148;2023-05-07T03:32:12;4.47;;;3.50;;
10277;SDS011;5184;51.376;7.148;2023-05-07T03:34:40;3.50;;;3.13;;
10277;SDS011;5184;51.376;7.148;2023-05-07T03:37:07;3.80;;;3.50;;
10277;SDS011;5184;51.376;7.148;2023-05-07T03:39:34;4.27;;;3.10;;
10277;SDS011;5184;51.376;7.148;2023-05-07T03:42:02;4.73;;;2.90;;
10277;SDS011;5184;51.376;7.148;2023-05-07T03:44:28;3.27;;;2.90;;
10277;SDS011;5184;51.376;7.148;2023-05-07T03:46:55;3.93;;;3.10;;
10277;SDS011;5184;51.376;7.148;2023-05-07T03:49:22;4.43;;;3.20;;
10277;SDS011;5184;51.376;7.148;2023-05-07T03:51:48;4.27;;;2.83;;
10277;SDS011;5184;51.376;7.148;2023-05-07T03:54:15;3.90;;;2.90;;
10277;SDS011;5184;51.376;7.148;2023-05-07T03:56:42;3.73;;;2.97;;
10277;SDS011;5184;51.376;7.148;2023-05-07T03:59:09;3.50;;;3.20;;
10277;SDS011;5184;51.376;7.148;2023-05-07T04:01:36;4.03;;;3.43;;
10277;SDS011;5184;51.376;7.148;2023-05-07T04:04:03;3.50;;;3.20;;
10277;SDS011;5184;51.376;7.148;2023-05-07T04:06:30;4.80;;;2.80;;
10277;SDS011;5184;51.376;7.148;2023-05-07T04:08:56;3.40;;;2.87;;
10277;SDS011;5184;51.376;7.148;2023-05-07T04:11:23;3.97;;;2.87;;
10277;SDS011;5184;51.376;7.148;2023-05-07T04:13:50;4.40;;;2.53;;
10277;SDS011;5184;51.376;7.148;2023-05-07T04:16:17;5.17;;;2.70;;
10277;SDS011;5184;51.376;7.148;2023-05-07T04:18:44;3.27;;;2.70;;
10277;SDS011;5184;51.376;7.148;2023-05-07T04:21:15;3.13;;;2.80;;
10277;SDS011;5184;51.376;7.148;2023-05-07T04:23:41;3.03;;;2.73;;
10277;SDS011;5184;51.376;7.148;2023-05-07T04:26:07;3.13;;;2.37;;
10277;SDS011;5184;51.376;7.148;2023-05-07T04:28:35;5.00;;;2.60;;
10277;SDS011;5184;51.376;7.148;2023-05-07T04:31:02;3.40;;;2.90;;
10277;SDS011;5184;51.376;7.148;2023-05-07T04:33:30;3.50;;;2.40;;
10277;SDS011;5184;51.376;7.148;2023-05-07T04:35:56;3.10;;;2.80;;
10277;SDS011;5184;51.376;7.148;2023-05-07T04:38:23;3.80;;;3.20;;
10277;SDS011;5184;51.376;7.148;2023-05-07T04:40:49;3.47;;;2.90;;
10277;SDS011;5184;51.376;7.148;2023-05-07T04:43:16;5.10;;;3.07;;
10277;SDS011;5184;51.376;7.148;2023-05-07T04:45:42;3.47;;;2.90;;
10277;SDS011;5184;51.376;7.148;2023-05-07T04:48:10;3.80;;;2.90;;
10277;SDS011;5184;51.376;7.148;2023-05-07T04:50:37;3.50;;;2.60;;
10277;SDS011;5184;51.376;7.148;2023-05-07T04:53:04;4.53;;;2.80;;
10277;SDS011;5184;51.376;7.148;2023-05-07T04:55:30;3.77;;;3.07;;
10277;SDS011;5184;51.376;7.148;2023-05-07T04:57:57;3.00;;;2.67;;
10277;SDS011;5184;51.376;7.148;2023-05-07T05:00:24;3.53;;;3.23;;
10277;SDS011;5184;51.376;7.148;2023-05-07T05:02:50;4.30;;;3.23;;
10277;SDS011;5184;51.376;7.148;2023-05-07T05:05:17;3.90;;;3.27;;
10277;SDS011;5184;51.376;7.148;2023-05-07T05:07:44;4.03;;;3.70;;
10277;SDS011;5184;51.376;7.148;2023-05-07T05:10:11;4.13;;;3.33;;
10277;SDS011;5184;51.376;7.148;2023-05-07T05:12:38;3.83;;;3.10;;
10277;SDS011;5184;51.376;7.148;2023-05-07T05:15:05;3.33;;;3.03;;
10277;SDS011;5184;51.376;7.148;2023-05-07T05:17:32;5.67;;;3.17;;
10277;SDS011;5184;51.376;7.148;2023-05-07T05:20:00;4.60;;;2.93;;
10277;SDS011;5184;51.376;7.148;2023-05-07T05:22:27;4.63;;;3.27;;
10277;SDS011;5184;51.376;7.148;2023-05-07T05:24:55;5.10;;;3.97;;
10277;SDS011;5184;51.376;7.148;2023-05-07T05:27:21;5.73;;;4.30;;
10277;SDS011;5184;51.376;7.148;2023-05-07T05:29:48;4.70;;;4.13;;
10277;SDS011;5184;51.376;7.148;2023-05-07T05:32:14;4.40;;;3.90;;
10277;SDS011;5184;51.376;7.148;2023-05-07T05:34:41;5.50;;;4.20;;
10277;SDS011;5184;51.376;7.148;2023-05-07T05:37:08;5.37;;;4.17;;
10277;SDS011;5184;51.376;7.148;2023-05-07T05:39:34;4.50;;;3.77;;
10277;SDS011;5184;51.376;7.148;2023-05-07T05:42:01;6.23;;;3.90;;
10277;SDS011;5184;51.376;7.148;2023-05-07T05:44:27;6.53;;;4.07;;
10277;SDS011;5184;51.376;7.148;2023-05-07T05:46:55;5.43;;;3.83;;
10277;SDS011;5184;51.376;7.148;2023-05-07T05:49:21;4.13;;;3.77;;
10277;SDS011;5184;51.376;7.148;2023-05-07T05:51:48;5.20;;;3.90;;
10277;SDS011;5184;51.376;7.148;2023-05-07T05:54:15;5.10;;;4.20;;
10277;SDS011;5184;51.376;7.148;2023-05-07T05:56:43;5.73;;;4.20;;
10277;SDS011;5184;51.376;7.148;2023-05-07T05:59:10;5.93;;;4.30;;
10277;SDS011;5184;51.376;7.148;2023-05-07T06:01:37;4.37;;;3.97;;
10277;SDS011;5184;51.376;7.148;2023-05-07T06:04:04;6.13;;;4.83;;
10277;SDS011;5184;51.376;7.148;2023-05-07T06:06:31;5.77;;;5.20;;
10277;SDS011;5184;51.376;7.148;2023-05-07T06:08:57;5.90;;;5.00;;
10277;SDS011;5184;51.376;7.148;2023-05-07T06:11:25;5.53;;;5.03;;
10277;SDS011;5184;51.376;7.148;2023-05-07T06:13:52;6.43;;;5.50;;
10277;SDS011;5184;51.376;7.148;2023-05-07T06:16:19;5.03;;;4.57;;
10277;SDS011;5184;51.376;7.148;2023-05-07T06:18:46;5.90;;;5.37;;
10277;SDS011;5184;51.376;7.148;2023-05-07T06:21:13;5.70;;;5.13;;
10277;SDS011;5184;51.376;7.148;2023-05-07T06:23:39;8.57;;;5.73;;
10277;SDS011;5184;51.376;7.148;2023-05-07T06:26:06;5.57;;;4.80;;
10277;SDS011;5184;51.376;7.148;2023-05-07T06:28:32;6.40;;;4.70;;
10277;SDS011;5184;51.376;7.148;2023-05-07T06:33:36;5.50;;;5.00;;
10277;SDS011;5184;51.376;7.148;2023-05-07T06:36:03;4.97;;;4.27;;
10277;SDS011;5184;51.376;7.148;2023-05-07T06:38:31;6.30;;;4.90;;
10277;SDS011;5184;51.376;7.148;2023-05-07T06:40:57;6.13;;;4.63;;
10277;SDS011;5184;51.376;7.148;2023-05-07T06:43:25;4.30;;;3.90;;
10277;SDS011;5184;51.376;7.148;2023-05-07T06:45:52;4.00;;;3.70;;
10277;SDS011;5184;51.376;7.148;2023-05-07T06:48:19;4.43;;;3.97;;
10277;SDS011;5184;51.376;7.148;2023-05-07T06:50:47;6.67;;;4.30;;
10277;SDS011;5184;51.376;7.148;2023-05-07T06:53:13;6.57;;;4.50;;
10277;SDS011;5184;51.376;7.148;2023-05-07T06:55:41;4.07;;;3.63;;
10277;SDS011;5184;51.376;7.148;2023-05-07T06:58:09;5.07;;;4.30;;
10277;SDS011;5184;51.376;7.148;2023-05-07T07:00:36;5.33;;;3.90;;
10277;SDS011;5184;51.376;7.148;2023-05-07T07:03:03;5.03;;;4.13;;
10277;SDS011;5184;51.376;7.148;2023-05-07T07:05:29;4.60;;;3.93;;
10277;SDS011;5184;51.376;7.148;2023-05-07T07:07:56;6.93;;;5.33;;
10277;SDS011;5184;51.376;7.148;2023-05-07T07:10:23;5.73;;;4.40;;
10277;SDS011;5184;51.376;7.148;2023-05-07T07:12:49;5.00;;;4.50;;
10277;SDS011;5184;51.376;7.148;2023-05-07T07:15:16;6.57;;;4.97;;
10277;SDS011;5184;51.376;7.148;2023-05-07T07:17:44;5.33;;;3.67;;
10277;SDS011;5184;51.376;7.148;2023-05-07T07:20:11;5.47;;;4.03;;
10277;SDS011;5184;51.376;7.148;2023-05-07T07:22:38;4.67;;;3.63;;
10277;SDS011;5184;51.376;7.148;2023-05-07T07:25:04;7.70;;;4.33;;
10277;SDS011;5184;51.376;7.148;2023-05-07T07:27:31;7.00;;;3.87;;
10277;SDS011;5184;51.376;7.148;2023-05-07T07:29:58;6.63;;;4.40;;
10277;SDS011;5184;51.376;7.148;2023-05-07T07:32:24;3.87;;;3.13;;
10277;SDS011;5184;51.376;7.148;2023-05-07T07:34:51;3.37;;;2.77;;
10277;SDS011;5184;51.376;7.148;2023-05-07T07:37:18;4.97;;;3.83;;
10277;SDS011;5184;51.376;7.148;2023-05-07T07:39:46;3.80;;;3.50;;
10277;SDS011;5184;51.376;7.148;2023-05-07T07:42:13;3.70;;;3.40;;
10277;SDS011;5184;51.376;7.148;2023-05-07T07:44:40;3.63;;;3.33;;
10277;SDS011;5184;51.376;7.148;2023-05-07T07:47:06;3.57;;;3.27;;
10277;SDS011;5184;51.376;7.148;2023-05-07T07:49:33;3.67;;;3.20;;
10277;SDS011;5184;51.376;7.148;2023-05-07T07:51:59;5.20;;;3.53;;
10277;SDS011;5184;51.376;7.148;2023-05-07T07:54:26;5.90;;;3.40;;
10277;SDS011;5184;51.376;7.148;2023-05-07T07:56:53;5.43;;;3.70;;
10277;SDS011;5184;51.376;7.148;2023-05-07T07:59:21;3.80;;;3.33;;
10277;SDS011;5184;51.376;7.148;2023-05-07T08:01:48;4.70;;;3.97;;
10277;SDS011;5184;51.376;7.148;2023-05-07T08:04:15;4.13;;;2.80;;
10277;SDS011;5184;51.376;7.148;2023-05-07T08:06:41;5.57;;;3.40;;
10277;SDS011;5184;51.376;7.148;2023-05-07T08:09:08;7.50;;;6.30;;
10277;SDS011;5184;51.376;7.148;2023-05-07T08:11:34;6.73;;;4.90;;
10277;SDS011;5184;51.376;7.148;2023-05-07T08:14:01;4.70;;;3.67;;
10277;SDS011;5184;51.376;7.148;2023-05-07T08:16:28;4.07;;;3.20;;
10277;SDS011;5184;51.376;7.148;2023-05-07T08:18:56;3.97;;;3.40;;
10277;SDS011;5184;51.376;7.148;2023-05-07T08:21:23;4.13;;;3.10;;
10277;SDS011;5184;51.376;7.148;2023-05-07T08:23:50;5.37;;;3.13;;
10277;SDS011;5184;51.376;7.148;2023-05-07T08:26:18;6.63;;;4.40;;
10277;SDS011;5184;51.376;7.148;2023-05-07T08:28:44;4.63;;;3.17;;
10277;SDS011;5184;51.376;7.148;2023-05-07T08:31:11;3.57;;;2.97;;
10277;SDS011;5184;51.376;7.148;2023-05-07T08:33:38;5.43;;;3.40;;
10277;SDS011;5184;51.376;7.148;2023-05-07T08:36:06;4.37;;;3.13;;
10277;SDS011;5184;51.376;7.148;2023-05-07T08:38:32;4.20;;;3.00;;
10277;SDS011;5184;51.376;7.148;2023-05-07T08:40:59;3.63;;;3.30;;
10277;SDS011;5184;51.376;7.148;2023-05-07T08:43:26;3.60;;;2.60;;
10277;SDS011;5184;51.376;7.148;2023-05-07T08:45:54;3.60;;;2.63;;
10277;SDS011;5184;51.376;7.148;2023-05-07T08:48:24;3.57;;;2.40;;
10277;SDS011;5184;51.376;7.148;2023-05-07T08:50:49;3.10;;;2.63;;
10277;SDS011;5184;51.376;7.148;2023-05-07T08:53:15;3.83;;;2.77;;
10277;SDS011;5184;51.376;7.148;2023-05-07T08:55:43;3.73;;;2.80;;
10277;SDS011;5184;51.376;7.148;2023-05-07T08:58:09;3.07;;;2.40;;
10277;SDS011;5184;51.376;7.148;2023-05-07T09:00:36;4.70;;;2.70;;
10277;SDS011;5184;51.376;7.148;2023-05-07T09:03:02;4.47;;;2.80;;
10277;SDS011;5184;51.376;7.148;2023-05-07T09:05:29;4.70;;;2.90;;
10277;SDS011;5184;51.376;7.148;2023-05-07T09:07:58;3.80;;;2.70;;
10277;SDS011;5184;51.376;7.148;2023-05-07T09:10:23;2.93;;;2.50;;
10277;SDS011;5184;51.376;7.148;2023-05-07T09:12:50;4.90;;;2.90;;
10277;SDS011;5184;51.376;7.148;2023-05-07T09:15:18;3.93;;;2.70;;
10277;SDS011;5184;51.376;7.148;2023-05-07T09:17:45;4.07;;;2.80;;
10277;SDS011;5184;51.376;7.148;2023-05-07T09:20:12;3.33;;;2.57;;
10277;SDS011;5184;51.376;7.148;2023-05-07T09:22:40;3.30;;;2.60;;
10277;SDS011;5184;51.376;7.148;2023-05-07T09:25:06;4.20;;;2.50;;
10277;SDS011;5184;51.376;7.148;2023-05-07T09:27:34;2.87;;;2.10;;
10277;SDS011;5184;51.376;7.148;2023-05-07T09:30:03;5.03;;;2.40;;
10277;SDS011;5184;51.376;7.148;2023-05-07T09:32:29;3.60;;;2.23;;
10277;SDS011;5184;51.376;7.148;2023-05-07T09:34:55;5.17;;;2.50;;
10277;SDS011;5184;51.376;7.148;2023-05-07T09:37:22;2.63;;;2.40;;
10277;SDS011;5184;51.376;7.148;2023-05-07T09:39:49;3.57;;;2.00;;
10277;SDS011;5184;51.376;7.148;2023-05-07T09:42:16;2.60;;;2.17;;
10277;SDS011;5184;51.376;7.148;2023-05-07T09:44:43;4.10;;;2.03;;
10277;SDS011;5184;51.376;7.148;2023-05-07T09:47:10;1.90;;;1.70;;
10277;SDS011;5184;51.376;7.148;2023-05-07T09:49:37;2.27;;;2.07;;
10277;SDS011;5184;51.376;7.148;2023-05-07T09:52:04;4.13;;;2.20;;
10277;SDS011;5184;51.376;7.148;2023-05-07T09:54:30;2.50;;;2.13;;
10277;SDS011;5184;51.376;7.148;2023-05-07T09:56:56;2.70;;;1.90;;
10277;SDS011;5184;51.376;7.148;2023-05-07T09:59:24;3.87;;;2.20;;
10277;SDS011;5184;51.376;7.148;2023-05-07T10:01:50;2.17;;;1.97;;
10277;SDS011;5184;51.376;7.148;2023-05-07T10:04:17;2.10;;;1.90;;
10277;SDS011;5184;51.376;7.148;2023-05-07T10:06:43;4.87;;;2.17;;
10277;SDS011;5184;51.376;7.148;2023-05-07T10:09:10;2.07;;;1.73;;
10277;SDS011;5184;51.376;7.148;2023-05-07T10:11:37;2.00;;;1.80;;
10277;SDS011;5184;51.376;7.148;2023-05-07T10:14:04;2.00;;;1.80;;
10277;SDS011;5184;51.376;7.148;2023-05-07T10:16:32;1.97;;;1.77;;
10277;SDS011;5184;51.376;7.148;2023-05-07T10:18:59;4.33;;;1.73;;
10277;SDS011;5184;51.376;7.148;2023-05-07T10:21:27;2.47;;;1.90;;
10277;SDS011;5184;51.376;7.148;2023-05-07T10:23:57;2.30;;;1.90;;
10277;SDS011;5184;51.376;7.148;2023-05-07T10:26:20;3.60;;;1.93;;
10277;SDS011;5184;51.376;7.148;2023-05-07T10:28:49;2.43;;;2.00;;
10277;SDS011;5184;51.376;7.148;2023-05-07T10:34:02;2.40;;;2.07;;
10277;SDS011;5184;51.376;7.148;2023-05-07T10:36:29;3.43;;;1.90;;
10277;SDS011;5184;51.376;7.148;2023-05-07T10:38:55;2.13;;;1.83;;
10277;SDS011;5184;51.376;7.148;2023-05-07T10:41:22;2.57;;;2.37;;
10277;SDS011;5184;51.376;7.148;2023-05-07T10:43:49;3.27;;;2.50;;
10277;SDS011;5184;51.376;7.148;2023-05-07T10:46:18;3.17;;;2.23;;
10277;SDS011;5184;51.376;7.148;2023-05-07T10:51:22;3.00;;;2.60;;
10277;SDS011;5184;51.376;7.148;2023-05-07T10:53:51;2.77;;;2.50;;
10277;SDS011;5184;51.376;7.148;2023-05-07T10:56:24;3.90;;;3.00;;
10277;SDS011;5184;51.376;7.148;2023-05-07T10:58:51;3.23;;;2.70;;
10277;SDS011;5184;51.376;7.148;2023-05-07T11:01:49;4.40;;;2.60;;
10277;SDS011;5184;51.376;7.148;2023-05-07T11:06:24;4.37;;;3.20;;
10277;SDS011;5184;51.376;7.148;2023-05-07T11:08:53;4.17;;;3.77;;
10277;SDS011;5184;51.376;7.148;2023-05-07T11:11:19;4.00;;;3.33;;
10277;SDS011;5184;51.376;7.148;2023-05-07T11:13:47;4.70;;;3.57;;
10277;SDS011;5184;51.376;7.148;2023-05-07T11:16:17;4.60;;;3.97;;
10277;SDS011;5184;51.376;7.148;2023-05-07T11:18:46;5.17;;;3.90;;
10277;SDS011;5184;51.376;7.148;2023-05-07T11:21:14;4.40;;;3.90;;
10277;SDS011;5184;51.376;7.148;2023-05-07T11:23:57;5.00;;;4.10;;
10277;SDS011;5184;51.376;7.148;2023-05-07T11:26:23;4.47;;;3.60;;
10277;SDS011;5184;51.376;7.148;2023-05-07T11:28:49;4.33;;;3.53;;
10277;SDS011;5184;51.376;7.148;2023-05-07T11:31:17;4.47;;;4.03;;
10277;SDS011;5184;51.376;7.148;2023-05-07T11:33:43;5.73;;;4.40;;
10277;SDS011;5184;51.376;7.148;2023-05-07T11:36:11;4.97;;;4.47;;
10277;SDS011;5184;51.376;7.148;2023-05-07T11:38:38;4.30;;;4.00;;
10277;SDS011;5184;51.376;7.148;2023-05-07T11:41:05;5.40;;;4.17;;
10277;SDS011;5184;51.376;7.148;2023-05-07T11:43:33;6.20;;;4.60;;
10277;SDS011;5184;51.376;7.148;2023-05-07T11:46:07;5.50;;;4.30;;
10277;SDS011;5184;51.376;7.148;2023-05-07T11:48:34;4.30;;;3.90;;
10277;SDS011;5184;51.376;7.148;2023-05-07T11:51:02;4.47;;;4.00;;
10277;SDS011;5184;51.376;7.148;2023-05-07T11:53:35;4.87;;;3.83;;
10277;SDS011;5184;51.376;7.148;2023-05-07T11:56:06;4.73;;;4.00;;
10277;SDS011;5184;51.376;7.148;2023-05-07T11:58:33;5.77;;;4.10;;
10277;SDS011;5184;51.376;7.148;2023-05-07T12:01:00;5.30;;;3.87;;
10277;SDS011;5184;51.376;7.148;2023-05-07T12:03:26;5.27;;;3.50;;
10277;SDS011;5184;51.376;7.148;2023-05-07T12:05:54;4.37;;;3.50;;
10277;SDS011;5184;51.376;7.148;2023-05-07T12:08:21;4.13;;;3.60;;
10277;SDS011;5184;51.376;7.148;2023-05-07T12:10:49;4.50;;;3.53;;
10277;SDS011;5184;51.376;7.148;2023-05-07T12:13:17;3.97;;;3.50;;
10277;SDS011;5184;51.376;7.148;2023-05-07T12:15:44;3.83;;;3.47;;
10277;SDS011;5184;51.376;7.148;2023-05-07T12:18:11;5.50;;;3.90;;
10277;SDS011;5184;51.376;7.148;2023-05-07T12:20:39;4.87;;;3.53;;
10277;SDS011;5184;51.376;7.148;2023-05-07T12:23:06;3.63;;;3.33;;
10277;SDS011;5184;51.376;7.148;2023-05-07T12:25:35;4.17;;;3.77;;
10277;SDS011;5184;51.376;7.148;2023-05-07T12:28:01;5.20;;;4.17;;
10277;SDS011;5184;51.376;7.148;2023-05-07T12:30:28;5.27;;;4.33;;
10277;SDS011;5184;51.376;7.148;2023-05-07T12:32:56;4.17;;;3.50;;
10277;SDS011;5184;51.376;7.148;2023-05-07T12:35:28;4.47;;;4.07;;
10277;SDS011;5184;51.376;7.148;2023-05-07T12:37:56;4.97;;;4.03;;
10277;SDS011;5184;51.376;7.148;2023-05-07T12:40:22;5.80;;;5.07;;
10277;SDS011;5184;51.376;7.148;2023-05-07T12:42:49;6.23;;;5.63;;
10277;SDS011;5184;51.376;7.148;2023-05-07T12:45:15;5.60;;;5.10;;
10277;SDS011;5184;51.376;7.148;2023-05-07T12:47:44;7.20;;;5.50;;
10277;SDS011;5184;51.376;7.148;2023-05-07T12:50:11;5.80;;;5.10;;
10277;SDS011;5184;51.376;7.148;2023-05-07T12:52:37;7.13;;;5.70;;
10277;SDS011;5184;51.376;7.148;2023-05-07T12:55:05;7.50;;;6.50;;
10277;SDS011;5184;51.376;7.148;2023-05-07T12:57:37;8.30;;;5.90;;
10277;SDS011;5184;51.376;7.148;2023-05-07T13:00:06;7.43;;;5.73;;
10277;SDS011;5184;51.376;7.148;2023-05-07T13:02:33;5.83;;;5.33;;
10277;SDS011;5184;51.376;7.148;2023-05-07T13:05:00;6.40;;;5.80;;
10277;SDS011;5184;51.376;7.148;2023-05-07T13:07:27;6.37;;;5.77;;
10277;SDS011;5184;51.376;7.148;2023-05-07T13:09:54;6.40;;;5.63;;
10277;SDS011;5184;51.376;7.148;2023-05-07T13:12:22;6.00;;;5.40;;
10277;SDS011;5184;51.376;7.148;2023-05-07T13:14:49;5.97;;;5.37;;
10277;SDS011;5184;51.376;7.148;2023-05-07T13:17:16;6.10;;;5.50;;
10277;SDS011;5184;51.376;7.148;2023-05-07T13:19:42;5.83;;;5.23;;
10277;SDS011;5184;51.376;7.148;2023-05-07T13:22:10;5.17;;;4.60;;
10277;SDS011;5184;51.376;7.148;2023-05-07T13:24:36;5.50;;;4.73;;
10277;SDS011;5184;51.376;7.148;2023-05-07T13:27:04;5.97;;;4.83;;
10277;SDS011;5184;51.376;7.148;2023-05-07T13:29:31;6.57;;;5.17;;
10277;SDS011;5184;51.376;7.148;2023-05-07T13:31:58;5.83;;;5.33;;
10277;SDS011;5184;51.376;7.148;2023-05-07T13:34:26;6.70;;;5.40;;
10277;SDS011;5184;51.376;7.148;2023-05-07T13:36:53;7.10;;;5.20;;
10277;SDS011;5184;51.376;7.148;2023-05-07T13:39:20;5.73;;;5.23;;
10277;SDS011;5184;51.376;7.148;2023-05-07T13:41:46;5.20;;;4.70;;
10277;SDS011;5184;51.376;7.148;2023-05-07T13:44:13;5.63;;;4.77;;
10277;SDS011;5184;51.376;7.148;2023-05-07T13:46:39;5.43;;;4.93;;
10277;SDS011;5184;51.376;7.148;2023-05-07T13:49:06;6.17;;;5.27;;
10277;SDS011;5184;51.376;7.148;2023-05-07T13:51:33;5.37;;;4.87;;
10277;SDS011;5184;51.376;7.148;2023-05-07T13:54:01;5.83;;;5.27;;
10277;SDS011;5184;51.376;7.148;2023-05-07T13:56:28;6.57;;;5.97;;
10277;SDS011;5184;51.376;7.148;2023-05-07T13:58:55;6.70;;;6.20;;
10277;SDS011;5184;51.376;7.148;2023-05-07T14:01:21;7.00;;;6.30;;
10277;SDS011;5184;51.376;7.148;2023-05-07T14:03:48;7.13;;;6.43;;
10277;SDS011;5184;51.376;7.148;2023-05-07T14:06:15;6.53;;;5.93;;
10277;SDS011;5184;51.376;7.148;2023-05-07T14:08:41;6.77;;;6.03;;
10277;SDS011;5184;51.376;7.148;2023-05-07T14:11:09;7.10;;;6.27;;
10277;SDS011;5184;51.376;7.148;2023-05-07T14:24:08;6.90;;;6.00;;
10277;SDS011;5184;51.376;7.148;2023-05-07T14:26:35;6.70;;;6.03;;
10277;SDS011;5184;51.376;7.148;2023-05-07T14:29:02;6.93;;;5.90;;
10277;SDS011;5184;51.376;7.148;2023-05-07T14:31:29;7.00;;;6.40;;
10277;SDS011;5184;51.376;7.148;2023-05-07T14:33:56;7.20;;;6.50;;
10277;SDS011;5184;51.376;7.148;2023-05-07T14:36:23;7.73;;;6.93;;
10277;SDS011;5184;51.376;7.148;2023-05-07T14:38:50;7.87;;;6.70;;
10277;SDS011;5184;51.376;7.148;2023-05-07T14:41:16;9.50;;;7.43;;
10277;SDS011;5184;51.376;7.148;2023-05-07T14:43:43;11.47;;;7.80;;
10277;SDS011;5184;51.376;7.148;2023-05-07T14:46:10;9.03;;;8.13;;
10277;SDS011;5184;51.376;7.148;2023-05-07T14:48:38;9.13;;;8.20;;
10277;SDS011;5184;51.376;7.148;2023-05-07T14:51:05;9.83;;;8.93;;
10277;SDS011;5184;51.376;7.148;2023-05-07T14:53:32;11.83;;;10.67;;
10277;SDS011;5184;51.376;7.148;2023-05-07T14:55:58;11.53;;;10.33;;
10277;SDS011;5184;51.376;7.148;2023-05-07T14:58:25;11.67;;;10.47;;
10277;SDS011;5184;51.376;7.148;2023-05-07T15:00:52;11.60;;;10.40;;
10277;SDS011;5184;51.376;7.148;2023-05-07T15:03:20;11.73;;;10.53;;
10277;SDS011;5184;51.376;7.148;2023-05-07T15:05:47;11.23;;;10.13;;
10277;SDS011;5184;51.376;7.148;2023-05-07T15:08:14;13.60;;;12.17;;
10277;SDS011;5184;51.376;7.148;2023-05-07T15:10:40;11.07;;;10.07;;
10277;SDS011;5184;51.376;7.148;2023-05-07T15:13:08;12.23;;;11.00;;
10277;SDS011;5184;51.376;7.148;2023-05-07T15:15:34;14.40;;;11.57;;
10277;SDS011;5184;51.376;7.148;2023-05-07T15:18:01;13.40;;;11.40;;
10277;SDS011;5184;51.376;7.148;2023-05-07T15:20:27;13.47;;;12.17;;